Parkesburg, Pennsylvania
Current Conditions -  °F | °C
As of 9:35 AM on Wednesday 22 Oct 2014 (Local Time) from KMQS Reporting Station
Light Rain Light Rain  
Wind Chill: 54°   Ceiling: 1200
Heat Index: 54°   Visibility: 10mi
Dew Point: 50°   Wind: 13mph
Humidity: 88%   Direction: 10°N
Pressure: 29.91"   Gusts: 18mph
Location:  39.96°N, 75.92°W
Report Text: KMQS 221335Z AUTO 01011G16KT 10SM -RA BKN012 OVC025 12/10 A2991 RMK AO2
Loading
Personal Weather Stations






























Interactive Weather Map
Tropical Storm Tracking
New forecast layout! Learn more

10-Day Weather Forecast

Advertisements
Track Severe Weather on mobile